Pahrump, Nevada Weather observations

Data are for observation ending at time listed.
 Day   Time    Ave.   Ave.  Ave.  Vector   Max.   Stn.    Total    Solar   Ave.  
  of    of     Air    Rel.  Wind   Wind    Wind   Baro.  Precip.   Rad.    Soil  
Year   Day     Temp.  Hum.  Speed  Dir.    Gust   Pres.                    Temp. 
2015   (PST)    F      %     mph   deg.    mph     mb.     in.     W/m2     F   
------------------------------------------------------------------------------
  89   15:50   85.8     9    2.7   240      8.0   922.7    0.00     505    77.5
  89   16:00   86.0     8    2.7   258      7.9   922.7    0.00     467    77.3
  89   16:10   85.9     8    3.8   279      8.7   922.6    0.00     428    77.1
  89   16:20   85.6     9    3.2   222      7.5   922.4    0.00     129    76.8
  89   16:30   85.1     9    3.0   229      6.9   922.3    0.00      37    76.6
  89   16:40   85.0     9    2.7   260      8.3   922.3    0.00      35    76.4
  89   16:50   84.9     9    3.5   267      9.3   922.3    0.00      31    76.2
  89   17:00   84.6     9    1.6   224      4.7   922.2    0.00      30    76.0
  89   17:10   84.4    10    2.5   252      6.9   922.2    0.00      30    75.8
  89   17:20   83.8    10    2.6   251      7.2   922.1    0.00      25    75.7
  89   17:30   83.3    10    1.7   241      4.9   922.0    0.00      23    75.5
  89   17:40   82.8    10    1.7   266      4.1   921.9    0.00      21    75.4
  89   17:50   81.9    11    1.4   255      3.1   921.9    0.00      17    75.2
  89   18:00   81.0    11    1.6   247      2.9   921.7    0.00      11    75.0
  89   18:10   80.0    12    1.5   240      3.6   921.7    0.00       5    74.8
  89   18:20   79.0    12    1.1   238      2.8   921.6    0.00       3    74.7
  89   18:30   78.2    12    1.2   228      2.7   921.6    0.00       0    74.5
  89   18:40   78.1    12    1.5   222      2.2   921.5    0.00       0    74.3
  89   18:50   78.0    12    1.9   209      3.1   921.6    0.00       0    74.1
  89   19:00   78.2    12    1.6   208      3.4   921.6    0.00       0    73.9
  89   19:10   78.4    12    1.8   190      2.9   921.7    0.00       0    73.7
  89   19:20   77.1    12    2.2   121      3.3   921.7    0.00       0    73.5
  89   19:30   75.5    13    3.0   112      4.1   921.7    0.00       0    73.3
  89   19:40   74.8    13    3.7   103      5.6   921.7    0.00       0    73.1
  89   19:50   74.4    13    4.9    98      7.1   921.7    0.00       0    73.0
  89   20:00   74.8    13    4.8    93      8.2   921.8    0.00       0    72.8
  89   20:10   74.7    13    5.4    93      8.6   921.8    0.00       0    72.7
  89   20:20   74.4    13    5.3    88      8.9   921.9    0.00       0    72.5
  89   20:30   74.1    13    6.1    88      9.9   921.9    0.00       0    72.4
  89   20:40   74.1    13    6.7    86      9.8   921.9    0.00       0    72.3
  89   20:50   74.0    13    7.2    90     10.3   921.8    0.00       0    72.1
  89   21:00   73.8    13    7.1    91     11.1   921.8    0.00       0    72.0
  89   21:10   73.5    13    7.1    89     10.4   921.8    0.00       0    71.9
  89   21:20   73.4    13    7.6    89     11.2   921.8    0.00       0    71.8
  89   21:30   73.2    13    7.3    89     11.0   921.8    0.00       0    71.7
  89   21:40   73.0    13    7.7    90     11.3   921.8    0.00       0    71.6
  89   21:50   72.8    14    7.8    94     10.9   921.7    0.00       0    71.5
  89   22:00   72.7    14    6.0    92      9.9   921.7    0.00       0    71.4
  89   22:10   69.6    17    3.3   259      5.7   921.7    0.00       0    71.3
  89   22:20   65.9    19    3.1   247      7.1   921.6    0.00       0    71.2
  89   22:30   65.3    19    1.7   232      4.3   921.4    0.00       0    71.0
  89   22:40   64.8    20    1.9   254      3.9   921.2    0.00       0    70.9
  89   22:50   64.0    20    0.8   150      2.1   921.1    0.00       0    70.8
  89   23:00   64.5    19    1.3    94      2.0   921.0    0.00       0    70.6
  89   23:10   64.5    20    0.5   274      1.4   920.8    0.00       0    70.4
  89   23:20   62.9    22    0.9   267      2.5   920.7    0.00       0    70.2
  89   23:30   61.8    23    1.4    44      3.1   920.6    0.00       0    70.0
  89   23:40   62.5    21    2.7    56      4.1   920.4    0.00       0    69.9
  89   23:50   63.0    21    3.1   283      9.0   920.4    0.00       0    69.7
  90    0:00   59.4    25    3.3   268      8.9   920.7    0.00       0    69.5
  90    0:10   60.4    22    2.8   143      4.2   920.6    0.00       0    69.3
  90    0:20   61.6    21    3.8   104      6.4   920.4    0.00       0    69.1
  90    0:30   62.7    20    5.1    93      8.3   920.3    0.00       0    69.0
  90    0:40   63.9    19    4.0   102      8.4   920.4    0.00       0    68.8
  90    0:50   63.4    20    1.1   145      2.6   920.4    0.00       0    68.6
  90    1:00   62.4    22    1.3   252      7.5   920.5    0.00       0    68.5
  90    1:10   59.3    25    2.1   327      6.2   920.4    0.00       0    68.4
  90    1:20   56.2    28    1.5    19      3.0   920.3    0.00       0    68.3
  90    1:30   55.9    31    1.3   290      2.6   920.1    0.00       0    68.1
  90    1:40   56.4    27    1.7   324      6.4   919.9    0.00       0    67.9
  90    1:50   57.3    26    1.0   354      2.6   919.9    0.00       0    67.8
  90    2:00   57.0    26    1.5    58      2.6   919.9    0.00       0    67.6
  90    2:10   57.4    25    1.4    82      3.7   919.8    0.00       0    67.4
  90    2:20   58.3    24    2.4    76      4.3   919.7    0.00       0    67.3
  90    2:30   59.3    23    2.5    87      4.7   919.6    0.00       0    67.2
  90    2:40   59.9    22    2.0    53      3.2   919.6    0.00       0    67.0
  90    2:50   58.5    23    0.9    28      2.4   919.5    0.00       0    66.9
  90    3:00   58.4    24    0.8   332      2.2   919.5    0.00       0    66.7
  90    3:10   58.7    25    1.0   318      2.3   919.4    0.00       0    66.6
  90    3:20   58.1    27    0.4     6      1.5   919.3    0.00       0    66.5
  90    3:30   57.7    26    0.8   126      2.6   919.3    0.00       0    66.4
  90    3:40   57.7    25    0.7   184      2.3   919.2    0.00       0    66.3
  90    3:50   57.7    26    1.0   276      3.1   919.1    0.00       0    66.2
  90    4:00   57.2    27    1.3   244      2.9   919.2    0.00       0    66.1
  90    4:10   56.4    27    0.4   219      1.5   919.1    0.00       0    65.9
  90    4:20   56.2    26    0.6   188      1.6   919.2    0.00       0    65.8
  90    4:30   56.6    26    1.3   106      2.6   919.2    0.00       0    65.7
  90    4:40   56.5    26    1.2   115      3.5   919.2    0.00       0    65.6
  90    4:50   56.9    25    1.8   104      3.3   919.2    0.00       0    65.5
  90    5:00   56.8    25    2.4   118      3.9   919.1    0.00       0    65.4
  90    5:10   57.1    24    2.7   153      3.9   919.1    0.00       0    65.3
  90    5:20   57.1    24    2.4   153      4.2   919.1    0.00       0    65.2
  90    5:30   56.7    25    0.6   267      1.8   919.1    0.00       0    65.1
  90    5:40   56.1    26    1.0   336      2.1   919.1    0.00       0    65.0
  90    5:50   55.0    26    1.4    29      2.9   919.1    0.00       0    64.9
  90    6:00   54.7    26    1.8    17      2.6   919.1    0.00       0    64.8
  90    6:10   55.6    26    0.3   342      1.4   919.2    0.00       0    64.7
  90    6:20   58.1    24    0.5   342      1.3   919.3    0.00       0    64.6
  90    6:30   60.7    22    0.6    48      1.8   919.5    0.00       0    64.6
  90    6:40   61.0    22    1.0    42      2.1   919.8    0.00      68    64.6
  90    6:50   61.2    22    1.8    37      3.5   920.0    0.00     205    64.6
  90    7:00   63.0    21    1.1    23      2.6   920.2    0.00     181    64.8
  90    7:10   63.3    22    1.9   320      3.5   920.5    0.00     114    64.9
  90    7:20   63.0    23    2.2   301      4.4   920.7    0.00     285    65.1
  90    7:30   63.3    22    2.7   297      6.4   920.9    0.00     360    65.3
  90    7:40   63.8    22    1.0   342      2.1   921.0    0.00     439    65.6
  90    7:50   65.8    20    1.3    32      2.3   921.2    0.00     354    65.9
  90    8:00   68.1    19    0.7   336      2.4   921.5    0.00     423    66.3
  90    8:10   72.2    18    2.6   179     12.6   921.6    0.00     445    66.7
  90    8:20   75.7    13   10.0   169     14.8   921.8    0.00     346    67.2
  90    8:30   76.6    13    9.7   176     14.1   922.0    0.00     492    67.6
  90    8:40   77.2    12    9.7   171     14.8   922.1    0.00     510    67.9
  90    8:50   77.8    12    9.7   168     16.7   922.3    0.00     315    68.2
  90    9:00   78.0    12   10.1   244     15.0   922.4    0.00     209    68.5
  90    9:10   78.5    11   11.0   175     17.5   922.4    0.00     589    68.8
  90    9:20   79.4    11    8.8   168     13.9   922.5    0.00     626    69.0
  90    9:30   79.4    11   10.5   159     15.6   922.6    0.00     709    69.2
  90    9:40   80.2    11    9.9   151     15.8   922.6    0.00     775    69.4
  90    9:50   80.7    11   10.2   162     16.0   922.7    0.00     773    69.6
  90   10:00   81.1    10   10.4   173     19.8   922.8    0.00     787    69.8
  90   10:10   80.7    10    9.7   163     16.4   922.8    0.00     637    69.9
  90   10:20   81.3    10   10.0   170     14.7   922.8    0.00     847    70.1
  90   10:30   81.8     9   12.2   174     17.8   922.7    0.00     877    70.3
  90   10:40   82.5     9   11.3   181     18.8   922.7    0.00     871    70.4
  90   10:50   82.8     9    9.7   178     17.2   922.7    0.00     646    70.6
  90   11:00   83.2     9   10.8   185     18.3   922.6    0.00     727    70.7
  90   11:10   83.0     9   12.5   178     19.8   922.5    0.00     968    70.8
  90   11:20   83.6     8   13.3   175     20.5   922.3    0.00     947    71.0
  90   11:30   84.1     8   10.2   184     23.8   922.3    0.00     947    71.3
  90   11:40   85.4     9    4.3   232     12.7   922.2    0.00     964    71.6
  90   11:50   84.6     8    8.8   186     18.3   922.2    0.00     894    72.0
  90   12:00   84.4     8    9.5   176     19.4   922.1    0.00     929    72.4
  90   12:10   84.3     8    9.6   186     19.0   922.0    0.00     980    73.0
  90   12:20   84.6     8    8.6   200     19.4   922.0    0.00     930    73.6
  90   12:30   83.8     8    9.0   172     18.3   921.8    0.00     806    74.1
  90   12:40   83.9     8    9.8   188     19.0   921.6    0.00     935    74.7
  90   12:50   84.0     9    9.4   186     17.6   921.5    0.00     915    75.2
  90   13:00   83.4     9    9.1   179     17.0   921.2    0.00     748    75.7
  90   13:10   83.8     9   11.0   163     16.8   921.0    0.00     826    76.2
  90   13:20   83.8    10    7.6   172     20.9   920.7    0.00     944    76.6
  90   13:30   84.0    10    5.2   174     17.0   920.6    0.00     846    76.9
  90   13:40   84.0    10    8.4   180     20.1   920.4    0.00     869    77.2
  90   13:50   83.9    10    7.5   184     16.8   920.3    0.00     789    77.5
  90   14:00   84.1    10    9.6   176     18.7   920.1    0.00     923    77.8
  90   14:10   84.8    10    9.1   155     16.4   919.9    0.00     794    78.0
  90   14:20   84.2    10    9.9   183     17.5   919.7    0.00     633    78.1
  90   14:30   84.7    10   11.2   172     20.2   919.5    0.00     818    77.9
  90   14:40   84.7     9    9.6   187     19.2   919.2    0.00     810    77.9
  90   14:50   85.1     9    9.5   185     21.0   919.0    0.00     750    77.7
  90   15:00   84.2     9   11.4   180     17.8   918.9    0.00     693    77.5
  90   15:10   84.4     9   10.1   177     18.3   918.8    0.00     654    77.3
  90   15:20   84.4     9    9.6   183     19.0   918.6    0.00     619    77.1
  90   15:30   84.2     9    6.6   208     17.3   918.4    0.00     584    77.0
  90   15:40   84.8     9    7.5   189     15.2   918.3    0.00     544    76.8

Return to Pahrump, Nevada graphs page.


Western Regional Climate Center,wrcc@dri.edu